sensor_id;sensor_type;location;lat;lon;timestamp;P1;durP1;ratioP1;P2;durP2;ratioP2
16832;SDS011;8533;48.426;10.868;2022-07-18T00:00:43;2.30;;;2.10;;
16832;SDS011;8533;48.426;10.868;2022-07-18T00:03:10;2.60;;;2.40;;
16832;SDS011;8533;48.426;10.868;2022-07-18T00:05:38;3.03;;;2.20;;
16832;SDS011;8533;48.426;10.868;2022-07-18T00:08:05;4.47;;;2.00;;
16832;SDS011;8533;48.426;10.868;2022-07-18T00:10:33;2.70;;;2.50;;
16832;SDS011;8533;48.426;10.868;2022-07-18T00:13:00;2.53;;;2.30;;
16832;SDS011;8533;48.426;10.868;2022-07-18T00:15:28;2.70;;;2.50;;
16832;SDS011;8533;48.426;10.868;2022-07-18T00:17:55;2.10;;;2.00;;
16832;SDS011;8533;48.426;10.868;2022-07-18T00:20:23;2.97;;;2.00;;
16832;SDS011;8533;48.426;10.868;2022-07-18T00:22:51;2.50;;;2.30;;
16832;SDS011;8533;48.426;10.868;2022-07-18T00:25:19;3.43;;;2.13;;
16832;SDS011;8533;48.426;10.868;2022-07-18T00:27:46;3.07;;;2.20;;
16832;SDS011;8533;48.426;10.868;2022-07-18T00:30:14;2.37;;;2.17;;
16832;SDS011;8533;48.426;10.868;2022-07-18T00:32:42;2.77;;;2.23;;
16832;SDS011;8533;48.426;10.868;2022-07-18T00:35:09;3.07;;;2.50;;
16832;SDS011;8533;48.426;10.868;2022-07-18T00:37:37;2.67;;;2.30;;
16832;SDS011;8533;48.426;10.868;2022-07-18T00:40:04;2.77;;;2.30;;
16832;SDS011;8533;48.426;10.868;2022-07-18T00:42:33;2.60;;;2.20;;
16832;SDS011;8533;48.426;10.868;2022-07-18T00:45:00;3.90;;;2.60;;
16832;SDS011;8533;48.426;10.868;2022-07-18T00:47:28;2.43;;;2.23;;
16832;SDS011;8533;48.426;10.868;2022-07-18T00:49:57;2.53;;;2.33;;
16832;SDS011;8533;48.426;10.868;2022-07-18T00:52:24;3.33;;;2.60;;
16832;SDS011;8533;48.426;10.868;2022-07-18T00:54:52;2.77;;;2.10;;
16832;SDS011;8533;48.426;10.868;2022-07-18T00:57:19;2.57;;;1.90;;
16832;SDS011;8533;48.426;10.868;2022-07-18T00:59:46;3.83;;;2.40;;
16832;SDS011;8533;48.426;10.868;2022-07-18T01:02:34;2.83;;;2.23;;
16832;SDS011;8533;48.426;10.868;2022-07-18T01:05:02;3.77;;;2.50;;
16832;SDS011;8533;48.426;10.868;2022-07-18T01:07:29;3.20;;;2.53;;
16832;SDS011;8533;48.426;10.868;2022-07-18T01:09:57;2.80;;;2.60;;
16832;SDS011;8533;48.426;10.868;2022-07-18T01:12:25;2.87;;;2.50;;
16832;SDS011;8533;48.426;10.868;2022-07-18T01:14:53;2.87;;;2.50;;
16832;SDS011;8533;48.426;10.868;2022-07-18T01:17:23;2.67;;;1.93;;
16832;SDS011;8533;48.426;10.868;2022-07-18T01:19:51;5.47;;;2.60;;
16832;SDS011;8533;48.426;10.868;2022-07-18T01:22:19;2.87;;;2.47;;
16832;SDS011;8533;48.426;10.868;2022-07-18T01:24:47;2.93;;;2.37;;
16832;SDS011;8533;48.426;10.868;2022-07-18T01:27:16;3.37;;;2.37;;
16832;SDS011;8533;48.426;10.868;2022-07-18T01:29:46;4.23;;;2.77;;
16832;SDS011;8533;48.426;10.868;2022-07-18T01:34:42;4.77;;;2.40;;
16832;SDS011;8533;48.426;10.868;2022-07-18T01:37:12;2.33;;;2.13;;
16832;SDS011;8533;48.426;10.868;2022-07-18T01:39:41;2.80;;;2.60;;
16832;SDS011;8533;48.426;10.868;2022-07-18T01:42:09;2.73;;;2.30;;
16832;SDS011;8533;48.426;10.868;2022-07-18T01:44:39;4.13;;;2.80;;
16832;SDS011;8533;48.426;10.868;2022-07-18T01:47:07;2.53;;;2.33;;
16832;SDS011;8533;48.426;10.868;2022-07-18T01:49:36;2.83;;;2.47;;
16832;SDS011;8533;48.426;10.868;2022-07-18T01:52:04;2.65;;;2.15;;
16832;SDS011;8533;48.426;10.868;2022-07-18T01:54:34;4.13;;;2.60;;
16832;SDS011;8533;48.426;10.868;2022-07-18T01:57:03;3.20;;;2.50;;
16832;SDS011;8533;48.426;10.868;2022-07-18T01:59:32;3.93;;;2.60;;
16832;SDS011;8533;48.426;10.868;2022-07-18T02:02:00;3.93;;;2.70;;
16832;SDS011;8533;48.426;10.868;2022-07-18T02:04:30;2.77;;;2.47;;
16832;SDS011;8533;48.426;10.868;2022-07-18T02:07:15;3.20;;;2.80;;
16832;SDS011;8533;48.426;10.868;2022-07-18T02:09:43;5.27;;;2.57;;
16832;SDS011;8533;48.426;10.868;2022-07-18T02:12:11;2.90;;;2.60;;
16832;SDS011;8533;48.426;10.868;2022-07-18T02:14:38;2.53;;;2.33;;
16832;SDS011;8533;48.426;10.868;2022-07-18T02:17:06;2.63;;;2.30;;
16832;SDS011;8533;48.426;10.868;2022-07-18T02:19:33;3.40;;;2.60;;
16832;SDS011;8533;48.426;10.868;2022-07-18T02:22:00;3.93;;;2.97;;
16832;SDS011;8533;48.426;10.868;2022-07-18T02:24:28;2.73;;;2.50;;
16832;SDS011;8533;48.426;10.868;2022-07-18T02:26:55;2.73;;;2.50;;
16832;SDS011;8533;48.426;10.868;2022-07-18T02:29:23;2.67;;;2.37;;
16832;SDS011;8533;48.426;10.868;2022-07-18T02:31:50;2.63;;;2.43;;
16832;SDS011;8533;48.426;10.868;2022-07-18T02:34:18;3.00;;;2.70;;
16832;SDS011;8533;48.426;10.868;2022-07-18T02:36:45;4.05;;;2.90;;
16832;SDS011;8533;48.426;10.868;2022-07-18T02:39:14;4.80;;;2.37;;
16832;SDS011;8533;48.426;10.868;2022-07-18T02:41:42;3.37;;;2.60;;
16832;SDS011;8533;48.426;10.868;2022-07-18T02:44:09;3.90;;;2.70;;
16832;SDS011;8533;48.426;10.868;2022-07-18T02:46:37;3.27;;;2.63;;
16832;SDS011;8533;48.426;10.868;2022-07-18T02:49:04;4.67;;;2.80;;
16832;SDS011;8533;48.426;10.868;2022-07-18T02:51:32;3.47;;;2.67;;
16832;SDS011;8533;48.426;10.868;2022-07-18T02:54:00;5.27;;;2.43;;
16832;SDS011;8533;48.426;10.868;2022-07-18T02:56:27;3.07;;;2.40;;
16832;SDS011;8533;48.426;10.868;2022-07-18T02:58:55;3.07;;;2.73;;
16832;SDS011;8533;48.426;10.868;2022-07-18T03:01:22;5.53;;;3.00;;
16832;SDS011;8533;48.426;10.868;2022-07-18T03:03:50;3.37;;;3.07;;
16832;SDS011;8533;48.426;10.868;2022-07-18T03:06:18;3.27;;;2.87;;
16832;SDS011;8533;48.426;10.868;2022-07-18T03:08:45;2.90;;;2.60;;
16832;SDS011;8533;48.426;10.868;2022-07-18T03:11:13;3.33;;;2.77;;
16832;SDS011;8533;48.426;10.868;2022-07-18T03:13:40;3.33;;;2.80;;
16832;SDS011;8533;48.426;10.868;2022-07-18T03:16:08;3.62;;;2.77;;
16832;SDS011;8533;48.426;10.868;2022-07-18T03:18:36;3.17;;;2.60;;
16832;SDS011;8533;48.426;10.868;2022-07-18T03:21:04;6.17;;;3.10;;
16832;SDS011;8533;48.426;10.868;2022-07-18T03:23:31;3.50;;;2.85;;
16832;SDS011;8533;48.426;10.868;2022-07-18T03:25:59;2.83;;;2.53;;
16832;SDS011;8533;48.426;10.868;2022-07-18T03:28:27;4.33;;;2.90;;
16832;SDS011;8533;48.426;10.868;2022-07-18T03:30:54;5.30;;;2.83;;
16832;SDS011;8533;48.426;10.868;2022-07-18T03:33:24;3.13;;;2.80;;
16832;SDS011;8533;48.426;10.868;2022-07-18T03:35:52;3.83;;;3.00;;
16832;SDS011;8533;48.426;10.868;2022-07-18T03:38:20;3.43;;;3.13;;
16832;SDS011;8533;48.426;10.868;2022-07-18T03:40:47;4.27;;;2.90;;
16832;SDS011;8533;48.426;10.868;2022-07-18T03:43:15;3.33;;;2.73;;
16832;SDS011;8533;48.426;10.868;2022-07-18T03:45:43;4.80;;;2.90;;
16832;SDS011;8533;48.426;10.868;2022-07-18T03:48:10;3.27;;;2.80;;
16832;SDS011;8533;48.426;10.868;2022-07-18T03:50:38;3.60;;;3.20;;
16832;SDS011;8533;48.426;10.868;2022-07-18T03:53:05;4.65;;;3.25;;
16832;SDS011;8533;48.426;10.868;2022-07-18T03:55:33;7.23;;;3.10;;
16832;SDS011;8533;48.426;10.868;2022-07-18T03:58:00;3.23;;;2.93;;
16832;SDS011;8533;48.426;10.868;2022-07-18T04:00:28;3.80;;;3.00;;
16832;SDS011;8533;48.426;10.868;2022-07-18T04:02:55;2.97;;;2.67;;
16832;SDS011;8533;48.426;10.868;2022-07-18T04:05:23;3.37;;;3.03;;
16832;SDS011;8533;48.426;10.868;2022-07-18T04:07:50;4.08;;;2.90;;
16832;SDS011;8533;48.426;10.868;2022-07-18T04:10:17;3.23;;;2.73;;
16832;SDS011;8533;48.426;10.868;2022-07-18T04:12:45;4.40;;;3.30;;
16832;SDS011;8533;48.426;10.868;2022-07-18T04:15:15;4.97;;;3.17;;
16832;SDS011;8533;48.426;10.868;2022-07-18T04:17:43;3.53;;;3.07;;
16832;SDS011;8533;48.426;10.868;2022-07-18T04:20:10;3.43;;;3.10;;
16832;SDS011;8533;48.426;10.868;2022-07-18T04:22:46;3.57;;;2.80;;
16832;SDS011;8533;48.426;10.868;2022-07-18T04:25:19;4.10;;;3.62;;
16832;SDS011;8533;48.426;10.868;2022-07-18T04:27:48;3.17;;;2.83;;
16832;SDS011;8533;48.426;10.868;2022-07-18T04:32:45;3.77;;;3.00;;
16832;SDS011;8533;48.426;10.868;2022-07-18T04:35:13;6.33;;;2.90;;
16832;SDS011;8533;48.426;10.868;2022-07-18T04:40:09;3.53;;;2.97;;
16832;SDS011;8533;48.426;10.868;2022-07-18T04:42:37;7.60;;;3.17;;
16832;SDS011;8533;48.426;10.868;2022-07-18T04:45:06;9.90;;;3.77;;
16832;SDS011;8533;48.426;10.868;2022-07-18T04:47:34;9.60;;;3.97;;
16832;SDS011;8533;48.426;10.868;2022-07-18T04:50:02;5.07;;;3.30;;
16832;SDS011;8533;48.426;10.868;2022-07-18T04:52:40;4.70;;;2.97;;
16832;SDS011;8533;48.426;10.868;2022-07-18T04:57:38;6.23;;;3.03;;
16832;SDS011;8533;48.426;10.868;2022-07-18T05:00:18;13.47;;;4.37;;
16832;SDS011;8533;48.426;10.868;2022-07-18T05:05:10;6.87;;;3.60;;
16832;SDS011;8533;48.426;10.868;2022-07-18T05:07:44;3.73;;;3.00;;
16832;SDS011;8533;48.426;10.868;2022-07-18T05:10:13;4.70;;;3.60;;
16832;SDS011;8533;48.426;10.868;2022-07-18T05:12:42;4.77;;;3.67;;
16832;SDS011;8533;48.426;10.868;2022-07-18T05:15:12;6.20;;;3.57;;
16832;SDS011;8533;48.426;10.868;2022-07-18T05:17:41;5.50;;;3.33;;
16832;SDS011;8533;48.426;10.868;2022-07-18T05:20:11;4.63;;;3.50;;
16832;SDS011;8533;48.426;10.868;2022-07-18T05:22:43;5.67;;;3.80;;
16832;SDS011;8533;48.426;10.868;2022-07-18T05:25:12;7.07;;;3.90;;
16832;SDS011;8533;48.426;10.868;2022-07-18T05:27:41;6.60;;;3.53;;
16832;SDS011;8533;48.426;10.868;2022-07-18T05:30:10;4.83;;;3.90;;
16832;SDS011;8533;48.426;10.868;2022-07-18T05:32:40;5.13;;;3.83;;
16832;SDS011;8533;48.426;10.868;2022-07-18T05:35:09;6.87;;;4.65;;
16832;SDS011;8533;48.426;10.868;2022-07-18T05:37:37;6.23;;;4.10;;
16832;SDS011;8533;48.426;10.868;2022-07-18T05:40:06;5.03;;;4.30;;
16832;SDS011;8533;48.426;10.868;2022-07-18T05:42:35;7.13;;;4.90;;
16832;SDS011;8533;48.426;10.868;2022-07-18T05:45:03;7.80;;;4.57;;
16832;SDS011;8533;48.426;10.868;2022-07-18T05:47:33;5.87;;;4.47;;
16832;SDS011;8533;48.426;10.868;2022-07-18T05:50:00;8.70;;;5.17;;
16832;SDS011;8533;48.426;10.868;2022-07-18T05:52:28;10.03;;;5.30;;
16832;SDS011;8533;48.426;10.868;2022-07-18T05:54:56;9.30;;;4.50;;
16832;SDS011;8533;48.426;10.868;2022-07-18T05:57:25;6.47;;;5.00;;
16832;SDS011;8533;48.426;10.868;2022-07-18T05:59:53;11.03;;;4.83;;
16832;SDS011;8533;48.426;10.868;2022-07-18T06:02:21;9.13;;;5.00;;
16832;SDS011;8533;48.426;10.868;2022-07-18T06:04:49;7.27;;;4.93;;
16832;SDS011;8533;48.426;10.868;2022-07-18T06:07:16;7.83;;;4.70;;
16832;SDS011;8533;48.426;10.868;2022-07-18T06:09:45;5.10;;;4.60;;
16832;SDS011;8533;48.426;10.868;2022-07-18T06:12:12;8.07;;;4.53;;
16832;SDS011;8533;48.426;10.868;2022-07-18T06:14:42;7.60;;;4.95;;
16832;SDS011;8533;48.426;10.868;2022-07-18T06:17:10;5.50;;;4.30;;
16832;SDS011;8533;48.426;10.868;2022-07-18T06:19:37;5.47;;;4.40;;
16832;SDS011;8533;48.426;10.868;2022-07-18T06:22:05;7.73;;;4.40;;
16832;SDS011;8533;48.426;10.868;2022-07-18T06:24:32;4.33;;;3.70;;
16832;SDS011;8533;48.426;10.868;2022-07-18T06:27:01;7.57;;;4.17;;
16832;SDS011;8533;48.426;10.868;2022-07-18T06:29:28;6.50;;;4.23;;
16832;SDS011;8533;48.426;10.868;2022-07-18T06:31:56;6.63;;;4.53;;
16832;SDS011;8533;48.426;10.868;2022-07-18T06:34:23;5.43;;;4.23;;
16832;SDS011;8533;48.426;10.868;2022-07-18T06:36:51;5.03;;;3.47;;
16832;SDS011;8533;48.426;10.868;2022-07-18T06:39:19;6.70;;;3.80;;
16832;SDS011;8533;48.426;10.868;2022-07-18T06:41:47;4.40;;;3.90;;
16832;SDS011;8533;48.426;10.868;2022-07-18T06:44:16;7.03;;;3.70;;
16832;SDS011;8533;48.426;10.868;2022-07-18T06:46:45;6.23;;;3.87;;
16832;SDS011;8533;48.426;10.868;2022-07-18T06:49:12;3.93;;;3.47;;
16832;SDS011;8533;48.426;10.868;2022-07-18T06:51:41;5.22;;;4.10;;
16832;SDS011;8533;48.426;10.868;2022-07-18T06:54:09;4.37;;;3.80;;
16832;SDS011;8533;48.426;10.868;2022-07-18T06:56:37;4.40;;;3.43;;
16832;SDS011;8533;48.426;10.868;2022-07-18T06:59:04;4.57;;;3.70;;
16832;SDS011;8533;48.426;10.868;2022-07-18T07:01:31;4.93;;;3.40;;
16832;SDS011;8533;48.426;10.868;2022-07-18T07:04:00;3.43;;;3.10;;
16832;SDS011;8533;48.426;10.868;2022-07-18T07:06:27;4.67;;;4.07;;
16832;SDS011;8533;48.426;10.868;2022-07-18T07:08:55;4.72;;;3.87;;
16832;SDS011;8533;48.426;10.868;2022-07-18T07:11:22;3.80;;;3.17;;
16832;SDS011;8533;48.426;10.868;2022-07-18T07:13:50;4.43;;;3.57;;
16832;SDS011;8533;48.426;10.868;2022-07-18T07:16:17;4.63;;;3.60;;
16832;SDS011;8533;48.426;10.868;2022-07-18T07:18:44;3.80;;;3.50;;
16832;SDS011;8533;48.426;10.868;2022-07-18T07:21:13;4.43;;;3.40;;
16832;SDS011;8533;48.426;10.868;2022-07-18T07:23:41;4.75;;;4.08;;
16832;SDS011;8533;48.426;10.868;2022-07-18T07:26:09;3.97;;;3.40;;
16832;SDS011;8533;48.426;10.868;2022-07-18T07:28:36;3.97;;;3.53;;
16832;SDS011;8533;48.426;10.868;2022-07-18T07:31:04;4.20;;;3.30;;
16832;SDS011;8533;48.426;10.868;2022-07-18T07:33:31;3.97;;;3.33;;
16832;SDS011;8533;48.426;10.868;2022-07-18T07:35:59;3.40;;;3.10;;
16832;SDS011;8533;48.426;10.868;2022-07-18T07:38:29;3.63;;;3.03;;
16832;SDS011;8533;48.426;10.868;2022-07-18T07:40:56;3.43;;;3.03;;
16832;SDS011;8533;48.426;10.868;2022-07-18T07:43:25;3.40;;;3.10;;
16832;SDS011;8533;48.426;10.868;2022-07-18T07:45:53;3.20;;;2.90;;
16832;SDS011;8533;48.426;10.868;2022-07-18T07:48:22;2.67;;;2.47;;
16832;SDS011;8533;48.426;10.868;2022-07-18T07:50:50;6.13;;;2.63;;
16832;SDS011;8533;48.426;10.868;2022-07-18T07:53:17;4.23;;;3.27;;
16832;SDS011;8533;48.426;10.868;2022-07-18T07:55:45;3.50;;;2.90;;
16832;SDS011;8533;48.426;10.868;2022-07-18T07:58:13;7.03;;;2.77;;
16832;SDS011;8533;48.426;10.868;2022-07-18T08:00:41;3.17;;;2.57;;
16832;SDS011;8533;48.426;10.868;2022-07-18T08:03:08;3.70;;;2.70;;
16832;SDS011;8533;48.426;10.868;2022-07-18T08:05:38;5.20;;;3.17;;
16832;SDS011;8533;48.426;10.868;2022-07-18T08:08:07;3.50;;;2.93;;
16832;SDS011;8533;48.426;10.868;2022-07-18T08:10:35;3.00;;;2.70;;
16832;SDS011;8533;48.426;10.868;2022-07-18T08:13:02;3.30;;;2.57;;
16832;SDS011;8533;48.426;10.868;2022-07-18T08:15:31;3.30;;;2.60;;
16832;SDS011;8533;48.426;10.868;2022-07-18T08:18:00;5.93;;;2.20;;
16832;SDS011;8533;48.426;10.868;2022-07-18T08:20:28;2.83;;;2.23;;
16832;SDS011;8533;48.426;10.868;2022-07-18T08:22:59;2.63;;;2.43;;
16832;SDS011;8533;48.426;10.868;2022-07-18T08:25:27;2.87;;;2.40;;
16832;SDS011;8533;48.426;10.868;2022-07-18T08:27:57;2.83;;;2.43;;
16832;SDS011;8533;48.426;10.868;2022-07-18T08:30:26;4.33;;;2.20;;
16832;SDS011;8533;48.426;10.868;2022-07-18T08:32:54;3.43;;;2.30;;
16832;SDS011;8533;48.426;10.868;2022-07-18T08:35:25;2.17;;;2.00;;
16832;SDS011;8533;48.426;10.868;2022-07-18T08:37:52;2.47;;;2.27;;
16832;SDS011;8533;48.426;10.868;2022-07-18T08:40:20;2.70;;;2.50;;
16832;SDS011;8533;48.426;10.868;2022-07-18T08:42:49;2.50;;;2.20;;
16832;SDS011;8533;48.426;10.868;2022-07-18T08:45:23;3.67;;;2.20;;
16832;SDS011;8533;48.426;10.868;2022-07-18T08:47:51;3.30;;;2.13;;
16832;SDS011;8533;48.426;10.868;2022-07-18T08:50:19;1.87;;;1.77;;
16832;SDS011;8533;48.426;10.868;2022-07-18T08:52:48;3.83;;;2.17;;
16832;SDS011;8533;48.426;10.868;2022-07-18T08:55:16;1.90;;;1.80;;
16832;SDS011;8533;48.426;10.868;2022-07-18T08:57:44;1.75;;;1.65;;
16832;SDS011;8533;48.426;10.868;2022-07-18T09:00:12;3.47;;;1.93;;
16832;SDS011;8533;48.426;10.868;2022-07-18T09:02:41;3.90;;;1.80;;
16832;SDS011;8533;48.426;10.868;2022-07-18T09:05:20;2.23;;;2.03;;
16832;SDS011;8533;48.426;10.868;2022-07-18T09:10:14;1.77;;;1.67;;
16832;SDS011;8533;48.426;10.868;2022-07-18T09:12:55;4.35;;;2.20;;
16832;SDS011;8533;48.426;10.868;2022-07-18T09:15:25;3.00;;;2.00;;
16832;SDS011;8533;48.426;10.868;2022-07-18T09:17:55;1.90;;;1.80;;
16832;SDS011;8533;48.426;10.868;2022-07-18T09:20:23;2.30;;;2.10;;
16832;SDS011;8533;48.426;10.868;2022-07-18T09:22:50;1.93;;;1.83;;
16832;SDS011;8533;48.426;10.868;2022-07-18T09:25:19;3.17;;;1.70;;
16832;SDS011;8533;48.426;10.868;2022-07-18T09:27:52;2.33;;;2.03;;
16832;SDS011;8533;48.426;10.868;2022-07-18T09:30:31;2.97;;;2.00;;
16832;SDS011;8533;48.426;10.868;2022-07-18T09:35:37;4.57;;;2.10;;
16832;SDS011;8533;48.426;10.868;2022-07-18T09:38:16;1.70;;;1.60;;
16832;SDS011;8533;48.426;10.868;2022-07-18T09:40:47;1.80;;;1.70;;
16832;SDS011;8533;48.426;10.868;2022-07-18T09:43:17;2.13;;;1.93;;
16832;SDS011;8533;48.426;10.868;2022-07-18T09:48:18;2.00;;;1.90;;
16832;SDS011;8533;48.426;10.868;2022-07-18T09:53:32;1.90;;;1.80;;
16832;SDS011;8533;48.426;10.868;2022-07-18T10:01:01;1.70;;;1.60;;
16832;SDS011;8533;48.426;10.868;2022-07-18T10:05:58;1.83;;;1.73;;
16832;SDS011;8533;48.426;10.868;2022-07-18T10:08:28;1.60;;;1.40;;
16832;SDS011;8533;48.426;10.868;2022-07-18T10:10:58;1.75;;;1.40;;
16832;SDS011;8533;48.426;10.868;2022-07-18T10:13:27;1.70;;;1.60;;
16832;SDS011;8533;48.426;10.868;2022-07-18T10:15:57;1.90;;;1.60;;
16832;SDS011;8533;48.426;10.868;2022-07-18T10:18:26;2.00;;;1.70;;
16832;SDS011;8533;48.426;10.868;2022-07-18T10:20:58;1.85;;;1.60;;
16832;SDS011;8533;48.426;10.868;2022-07-18T10:23:35;1.80;;;1.60;;
16832;SDS011;8533;48.426;10.868;2022-07-18T10:31:26;6.20;;;2.00;;
16832;SDS011;8533;48.426;10.868;2022-07-18T10:37:06;2.90;;;2.60;;
16832;SDS011;8533;48.426;10.868;2022-07-18T11:27:40;2.12;;;1.87;;
16832;SDS011;8533;48.426;10.868;2022-07-18T11:55:33;1.87;;;1.60;;
16832;SDS011;8533;48.426;10.868;2022-07-18T12:13:01;1.90;;;1.70;;
16832;SDS011;8533;48.426;10.868;2022-07-18T12:28:24;1.80;;;1.50;;
16832;SDS011;8533;48.426;10.868;2022-07-18T12:30:52;1.80;;;1.70;;
16832;SDS011;8533;48.426;10.868;2022-07-18T12:33:22;1.70;;;1.60;;
16832;SDS011;8533;48.426;10.868;2022-07-18T12:35:58;2.25;;;1.40;;
16832;SDS011;8533;48.426;10.868;2022-07-18T12:53:30;1.80;;;1.70;;
16832;SDS011;8533;48.426;10.868;2022-07-18T13:45:28;3.75;;;1.60;;
16832;SDS011;8533;48.426;10.868;2022-07-18T13:47:59;4.80;;;1.90;;
16832;SDS011;8533;48.426;10.868;2022-07-18T13:50:30;1.57;;;1.47;;
16832;SDS011;8533;48.426;10.868;2022-07-18T13:52:59;1.73;;;1.63;;
16832;SDS011;8533;48.426;10.868;2022-07-18T13:55:32;1.90;;;1.80;;
16832;SDS011;8533;48.426;10.868;2022-07-18T13:58:03;1.60;;;1.50;;
16832;SDS011;8533;48.426;10.868;2022-07-18T14:08:05;2.87;;;1.77;;
16832;SDS011;8533;48.426;10.868;2022-07-18T14:10:35;2.00;;;1.90;;
16832;SDS011;8533;48.426;10.868;2022-07-18T14:13:04;1.90;;;1.60;;
16832;SDS011;8533;48.426;10.868;2022-07-18T14:15:36;1.60;;;1.50;;
16832;SDS011;8533;48.426;10.868;2022-07-18T14:18:09;2.07;;;1.83;;
16832;SDS011;8533;48.426;10.868;2022-07-18T14:20:40;1.67;;;1.57;;
16832;SDS011;8533;48.426;10.868;2022-07-18T14:23:08;1.73;;;1.63;;
16832;SDS011;8533;48.426;10.868;2022-07-18T14:25:36;1.90;;;1.80;;
16832;SDS011;8533;48.426;10.868;2022-07-18T14:28:03;1.63;;;1.53;;
16832;SDS011;8533;48.426;10.868;2022-07-18T14:30:31;1.87;;;1.70;;
16832;SDS011;8533;48.426;10.868;2022-07-18T14:33:01;1.87;;;1.77;;
16832;SDS011;8533;48.426;10.868;2022-07-18T14:35:32;2.80;;;1.80;;
16832;SDS011;8533;48.426;10.868;2022-07-18T14:38:01;2.23;;;1.80;;
16832;SDS011;8533;48.426;10.868;2022-07-18T14:40:31;1.80;;;1.70;;
16832;SDS011;8533;48.426;10.868;2022-07-18T14:42:59;2.33;;;1.70;;
16832;SDS011;8533;48.426;10.868;2022-07-18T14:45:30;1.63;;;1.53;;
16832;SDS011;8533;48.426;10.868;2022-07-18T14:48:01;1.80;;;1.70;;
16832;SDS011;8533;48.426;10.868;2022-07-18T14:50:35;1.90;;;1.80;;
16832;SDS011;8533;48.426;10.868;2022-07-18T14:53:03;1.93;;;1.77;;
16832;SDS011;8533;48.426;10.868;2022-07-18T14:55:38;1.73;;;1.63;;
16832;SDS011;8533;48.426;10.868;2022-07-18T15:00:39;1.73;;;1.63;;
16832;SDS011;8533;48.426;10.868;2022-07-18T15:03:11;1.83;;;1.73;;
16832;SDS011;8533;48.426;10.868;2022-07-18T15:05:45;1.70;;;1.60;;
16832;SDS011;8533;48.426;10.868;2022-07-18T15:08:12;2.17;;;1.80;;
16832;SDS011;8533;48.426;10.868;2022-07-18T15:10:43;2.20;;;2.00;;
16832;SDS011;8533;48.426;10.868;2022-07-18T15:13:10;1.80;;;1.70;;
16832;SDS011;8533;48.426;10.868;2022-07-18T15:15:39;1.60;;;1.50;;
16832;SDS011;8533;48.426;10.868;2022-07-18T15:18:08;1.83;;;1.73;;
16832;SDS011;8533;48.426;10.868;2022-07-18T15:20:39;2.23;;;1.90;;
16832;SDS011;8533;48.426;10.868;2022-07-18T15:23:12;4.03;;;1.90;;
16832;SDS011;8533;48.426;10.868;2022-07-18T15:25:42;2.17;;;1.80;;
16832;SDS011;8533;48.426;10.868;2022-07-18T15:28:10;2.40;;;2.20;;
16832;SDS011;8533;48.426;10.868;2022-07-18T15:30:37;1.77;;;1.67;;
16832;SDS011;8533;48.426;10.868;2022-07-18T15:33:05;2.00;;;1.90;;
16832;SDS011;8533;48.426;10.868;2022-07-18T15:35:33;1.93;;;1.83;;
16832;SDS011;8533;48.426;10.868;2022-07-18T15:38:03;1.90;;;1.80;;
16832;SDS011;8533;48.426;10.868;2022-07-18T15:40:31;2.90;;;2.10;;
16832;SDS011;8533;48.426;10.868;2022-07-18T15:42:59;1.80;;;1.70;;
16832;SDS011;8533;48.426;10.868;2022-07-18T15:45:28;1.90;;;1.80;;
16832;SDS011;8533;48.426;10.868;2022-07-18T15:47:56;3.63;;;1.90;;
16832;SDS011;8533;48.426;10.868;2022-07-18T15:50:24;5.20;;;2.10;;
16832;SDS011;8533;48.426;10.868;2022-07-18T15:52:52;2.00;;;1.90;;
16832;SDS011;8533;48.426;10.868;2022-07-18T15:55:20;2.10;;;2.00;;
16832;SDS011;8533;48.426;10.868;2022-07-18T15:57:48;2.30;;;2.10;;
16832;SDS011;8533;48.426;10.868;2022-07-18T16:00:16;1.83;;;1.73;;
16832;SDS011;8533;48.426;10.868;2022-07-18T16:02:43;2.27;;;1.97;;
16832;SDS011;8533;48.426;10.868;2022-07-18T16:05:12;3.13;;;2.60;;
16832;SDS011;8533;48.426;10.868;2022-07-18T16:07:40;2.73;;;1.90;;
16832;SDS011;8533;48.426;10.868;2022-07-18T16:10:11;2.20;;;2.00;;
16832;SDS011;8533;48.426;10.868;2022-07-18T16:12:40;2.60;;;2.13;;
16832;SDS011;8533;48.426;10.868;2022-07-18T16:15:14;4.20;;;2.20;;
16832;SDS011;8533;48.426;10.868;2022-07-18T16:17:46;7.83;;;2.00;;
16832;SDS011;8533;48.426;10.868;2022-07-18T16:20:17;2.03;;;1.93;;
16832;SDS011;8533;48.426;10.868;2022-07-18T16:25:26;2.80;;;2.00;;
16832;SDS011;8533;48.426;10.868;2022-07-18T16:30:30;2.97;;;2.20;;
16832;SDS011;8533;48.426;10.868;2022-07-18T16:33:05;2.07;;;1.93;;
16832;SDS011;8533;48.426;10.868;2022-07-18T16:42:11;2.37;;;2.17;;
16832;SDS011;8533;48.426;10.868;2022-07-18T16:47:20;2.07;;;1.87;;
16832;SDS011;8533;48.426;10.868;2022-07-18T16:52:25;2.93;;;2.13;;
16832;SDS011;8533;48.426;10.868;2022-07-18T16:55:03;2.60;;;2.13;;
16832;SDS011;8533;48.426;10.868;2022-07-18T16:57:43;2.40;;;2.20;;
16832;SDS011;8533;48.426;10.868;2022-07-18T17:06:17;4.40;;;1.90;;
16832;SDS011;8533;48.426;10.868;2022-07-18T17:12:09;2.67;;;1.97;;
16832;SDS011;8533;48.426;10.868;2022-07-18T17:14:42;2.20;;;1.93;;
16832;SDS011;8533;48.426;10.868;2022-07-18T17:19:54;2.17;;;2.00;;
16832;SDS011;8533;48.426;10.868;2022-07-18T17:25:01;2.53;;;2.20;;
16832;SDS011;8533;48.426;10.868;2022-07-18T17:27:32;2.00;;;1.90;;
16832;SDS011;8533;48.426;10.868;2022-07-18T17:30:02;3.17;;;2.10;;
16832;SDS011;8533;48.426;10.868;2022-07-18T17:32:30;2.47;;;2.00;;
16832;SDS011;8533;48.426;10.868;2022-07-18T17:34:58;5.37;;;2.40;;
16832;SDS011;8533;48.426;10.868;2022-07-18T17:37:27;2.77;;;2.10;;
16832;SDS011;8533;48.426;10.868;2022-07-18T17:39:56;3.30;;;2.22;;
16832;SDS011;8533;48.426;10.868;2022-07-18T17:42:26;2.37;;;2.13;;
16832;SDS011;8533;48.426;10.868;2022-07-18T17:44:54;3.07;;;2.40;;
16832;SDS011;8533;48.426;10.868;2022-07-18T17:47:25;2.60;;;2.40;;
16832;SDS011;8533;48.426;10.868;2022-07-18T17:49:52;2.20;;;2.00;;
16832;SDS011;8533;48.426;10.868;2022-07-18T17:52:21;2.40;;;2.20;;
16832;SDS011;8533;48.426;10.868;2022-07-18T17:54:50;3.77;;;2.40;;
16832;SDS011;8533;48.426;10.868;2022-07-18T17:57:19;2.30;;;2.10;;
16832;SDS011;8533;48.426;10.868;2022-07-18T17:59:47;2.70;;;2.47;;
16832;SDS011;8533;48.426;10.868;2022-07-18T18:02:17;2.23;;;2.03;;
16832;SDS011;8533;48.426;10.868;2022-07-18T18:04:45;2.53;;;2.33;;
16832;SDS011;8533;48.426;10.868;2022-07-18T18:07:13;2.63;;;2.20;;
16832;SDS011;8533;48.426;10.868;2022-07-18T18:09:42;2.20;;;2.00;;
16832;SDS011;8533;48.426;10.868;2022-07-18T18:12:10;2.37;;;2.00;;
16832;SDS011;8533;48.426;10.868;2022-07-18T18:14:37;3.27;;;2.10;;
16832;SDS011;8533;48.426;10.868;2022-07-18T18:17:05;7.77;;;2.20;;
16832;SDS011;8533;48.426;10.868;2022-07-18T18:19:32;3.17;;;2.00;;
16832;SDS011;8533;48.426;10.868;2022-07-18T18:22:02;2.67;;;2.20;;
16832;SDS011;8533;48.426;10.868;2022-07-18T18:24:31;2.80;;;2.13;;
16832;SDS011;8533;48.426;10.868;2022-07-18T18:26:59;2.20;;;1.90;;
16832;SDS011;8533;48.426;10.868;2022-07-18T18:29:27;4.00;;;2.13;;
16832;SDS011;8533;48.426;10.868;2022-07-18T18:31:54;2.40;;;2.20;;
16832;SDS011;8533;48.426;10.868;2022-07-18T18:34:22;6.53;;;2.30;;
16832;SDS011;8533;48.426;10.868;2022-07-18T18:36:50;2.20;;;2.00;;
16832;SDS011;8533;48.426;10.868;2022-07-18T18:39:30;2.10;;;1.90;;
16832;SDS011;8533;48.426;10.868;2022-07-18T18:44:32;7.33;;;2.57;;
16832;SDS011;8533;48.426;10.868;2022-07-18T18:47:03;5.17;;;3.33;;
16832;SDS011;8533;48.426;10.868;2022-07-18T18:49:35;3.13;;;2.70;;
16832;SDS011;8533;48.426;10.868;2022-07-18T18:52:06;3.70;;;3.17;;
16832;SDS011;8533;48.426;10.868;2022-07-18T18:54:35;3.03;;;2.63;;
16832;SDS011;8533;48.426;10.868;2022-07-18T18:57:04;2.40;;;2.20;;
16832;SDS011;8533;48.426;10.868;2022-07-18T18:59:32;3.00;;;2.10;;
16832;SDS011;8533;48.426;10.868;2022-07-18T19:02:02;2.43;;;1.83;;
16832;SDS011;8533;48.426;10.868;2022-07-18T19:04:29;2.27;;;2.00;;
16832;SDS011;8533;48.426;10.868;2022-07-18T19:06:58;2.10;;;1.90;;